Time;durP1;ratioP1;P1;durP2;ratioP2;P2;SDS_P1;SDS_P2;PMS_P1;PMS_P2;Temp;Humidity;BMP_temperature;BMP_pressure;BME280_temperature;BME280_humidity;BME280_pressure;Samples;Min_cycle;Max_cycle;Signal;HPM_P1;HPM_P2
2023/03/25 00:00:18;;;;;;;9.32;1.88;;;;;;;-143.48;73.26;118439.88;5074537;28;20028;-75
2023/03/25 00:02:46;;;;;;;13.30;2.25;;;;;;;-143.48;73.36;118439.88;5075618;28;20028;-77
2023/03/25 00:05:13;;;;;;;19.17;2.10;;;;;;;-143.48;73.90;118439.88;5076092;28;20430;-73
2023/03/25 00:07:40;;;;;;;15.80;3.65;;;;;;;-143.48;76.06;118439.88;5076542;28;20025;-74
2023/03/25 00:10:06;;;;;;;12.48;2.67;;;;;;;-143.48;76.85;118439.88;5077552;28;20029;-75
2023/03/25 00:12:32;;;;;;;13.35;2.95;;;;;;;-143.48;77.11;118439.88;5075610;28;20029;-74
2023/03/25 00:14:58;;;;;;;12.13;2.25;;;;;;;-143.48;77.01;118439.88;5077255;28;20083;-74
2023/03/25 00:17:30;;;;;;;17.95;2.28;;;;;;;-143.48;77.62;118439.88;5075832;28;20035;-75
2023/03/25 00:20:01;;;;;;;14.03;2.37;;;;;;;-143.48;78.92;118439.88;5074115;28;20111;-74
2023/03/25 00:22:26;;;;;;;26.85;3.35;;;;;;;-143.48;78.69;118439.88;5074374;28;20017;-75
2023/03/25 00:24:52;;;;;;;12.43;2.30;;;;;;;-143.48;79.50;118439.88;5072408;28;20070;-74
2023/03/25 00:27:18;;;;;;;18.80;3.05;;;;;;;-143.48;80.06;118439.88;5072753;28;20032;-74
2023/03/25 00:29:45;;;;;;;13.23;2.30;;;;;;;-143.48;79.48;118439.88;5072786;28;20031;-74
2023/03/25 00:32:11;;;;;;;16.80;2.30;;;;;;;-143.48;79.10;118439.88;5073752;28;20016;-74
2023/03/25 00:34:46;;;;;;;16.55;2.60;;;;;;;-143.48;78.52;118439.88;5072566;28;20035;-74
2023/03/25 00:37:12;;;;;;;14.15;2.35;;;;;;;-143.48;78.68;118439.88;5073388;28;20031;-74
2023/03/25 00:39:38;;;;;;;13.15;2.20;;;;;;;-143.48;78.14;118439.88;5073298;28;20025;-74
2023/03/25 00:42:04;;;;;;;16.90;2.40;;;;;;;-143.48;78.13;118439.88;5075268;28;20464;-73
2023/03/25 00:44:31;;;;;;;15.75;2.30;;;;;;;-143.48;77.66;118439.88;5076008;28;20035;-74
2023/03/25 00:46:56;;;;;;;18.90;2.40;;;;;;;-143.48;77.77;118439.88;5075714;28;20028;-74
2023/03/25 00:49:23;;;;;;;21.48;3.00;;;;;;;-143.48;78.81;118439.88;5076992;28;20027;-74
2023/03/25 00:51:52;;;;;;;18.90;2.88;;;;;;;-143.48;77.06;118439.88;5075494;28;20033;-75
2023/03/25 00:54:20;;;;;;;16.73;2.22;;;;;;;-143.48;76.73;118439.88;5076677;28;20500;-75
2023/03/25 00:56:46;;;;;;;17.80;2.33;;;;;;;-143.48;77.17;118439.88;5076923;28;20091;-74
2023/03/25 00:59:11;;;;;;;15.95;2.50;;;;;;;-143.48;77.41;118439.88;5075422;28;20025;-75
2023/03/25 01:01:38;;;;;;;16.17;2.40;;;;;;;-143.48;77.58;118439.88;5075778;28;20025;-75
2023/03/25 01:04:10;;;;;;;18.02;2.78;;;;;;;-143.48;77.19;118439.88;5076550;28;20081;-74
2023/03/25 01:06:37;;;;;;;18.15;2.83;;;;;;;-143.48;76.97;118439.88;5076767;28;20103;-74
2023/03/25 01:09:05;;;;;;;18.02;2.53;;;;;;;-143.48;76.70;118439.88;5075195;28;20491;-74
2023/03/25 01:11:37;;;;;;;21.83;3.58;;;;;;;-143.48;77.06;118439.88;5076451;28;20511;-73
2023/03/25 01:14:04;;;;;;;22.17;2.95;;;;;;;-143.48;76.64;118439.88;5076348;28;20035;-75
2023/03/25 01:16:31;;;;;;;16.48;2.35;;;;;;;-143.48;76.59;118439.88;5075212;28;20025;-75
2023/03/25 01:18:56;;;;;;;18.05;2.67;;;;;;;-143.48;76.83;118439.88;5076487;28;20473;-76
2023/03/25 01:21:22;;;;;;;13.63;2.50;;;;;;;-143.48;76.00;118439.88;5076457;28;20103;-75
2023/03/25 01:23:48;;;;;;;12.27;2.28;;;;;;;-143.48;76.31;118439.88;5076657;28;20464;-76
2023/03/25 01:26:13;;;;;;;18.45;2.88;;;;;;;-143.48;76.62;118439.88;5076279;28;20031;-75
2023/03/25 01:28:40;;;;;;;17.55;3.17;;;;;;;-143.48;77.99;118439.88;5075060;28;20035;-74
2023/03/25 01:31:08;;;;;;;14.38;2.22;;;;;;;-143.48;78.88;118439.88;5074826;28;20396;-74
2023/03/25 01:33:33;;;;;;;12.68;2.72;;;;;;;-143.48;80.22;118439.88;5075878;28;20059;-75
2023/03/25 01:36:00;;;;;;;24.92;2.58;;;;;;;-143.48;80.17;118439.88;5074416;28;20024;-74
2023/03/25 01:38:26;;;;;;;21.23;2.78;;;;;;;-143.48;80.42;118439.88;5075744;28;20036;-75
2023/03/25 01:40:52;;;;;;;17.40;2.30;;;;;;;-143.48;79.87;118439.88;5075718;28;20023;-74
2023/03/25 01:43:18;;;;;;;16.65;3.30;;;;;;;-143.48;81.03;118439.88;5075723;28;20017;-75
2023/03/25 01:45:45;;;;;;;16.85;2.45;;;;;;;-143.48;82.47;118439.88;5075594;28;20124;-75
2023/03/25 01:48:16;;;;;;;13.65;2.45;;;;;;;-143.48;82.91;118439.88;5074460;28;20021;-75
2023/03/25 01:50:46;;;;;;;16.27;2.40;;;;;;;-143.48;84.24;118439.88;5074528;28;20444;-74
2023/03/25 01:53:11;;;;;;;14.75;2.40;;;;;;;-143.48;85.05;118439.88;5075157;28;20049;-74
2023/03/25 01:55:38;;;;;;;15.48;2.20;;;;;;;-143.48;85.99;118439.88;5075831;28;20032;-75
2023/03/25 01:58:10;;;;;;;19.48;2.60;;;;;;;-143.48;86.51;118439.88;5074445;28;20025;-74
2023/03/25 02:00:39;;;;;;;15.27;2.65;;;;;;;-143.48;86.88;118439.88;5074419;28;20028;-75
2023/03/25 02:03:07;;;;;;;15.55;2.50;;;;;;;-143.48;87.56;118439.88;5074520;28;20441;-75
2023/03/25 02:05:36;;;;;;;18.00;2.60;;;;;;;-143.48;88.29;118439.88;5074435;28;20052;-75
2023/03/25 02:08:04;;;;;;;16.23;2.45;;;;;;;-143.48;89.03;118439.88;5074579;28;20407;-75
2023/03/25 02:10:31;;;;;;;15.35;2.70;;;;;;;-143.48;89.04;118439.88;5075520;28;20036;-74
2023/03/25 02:12:57;;;;;;;17.25;2.85;;;;;;;-143.48;89.13;118439.88;5074173;28;20445;-75
2023/03/25 02:15:23;;;;;;;12.95;2.30;;;;;;;-143.48;89.18;118439.88;5074122;28;20024;-74
2023/03/25 02:18:10;;;;;;;14.32;2.60;;;;;;;-143.48;89.52;118439.88;5074198;28;20073;-75
2023/03/25 02:21:22;;;;;;;13.95;2.58;;;;;;;-143.48;89.23;118439.88;5075268;28;20471;-75
2023/03/25 02:24:21;;;;;;;14.85;2.53;;;;;;;-143.48;89.26;118439.88;5074045;28;20078;-76
2023/03/25 02:27:14;;;;;;;18.55;2.50;;;;;;;-143.48;89.26;118439.88;5074011;28;20472;-75
2023/03/25 02:29:57;;;;;;;13.82;2.42;;;;;;;-143.48;89.00;118439.88;5074270;28;20480;-75
2023/03/25 02:32:36;;;;;;;17.58;2.90;;;;;;;-143.48;89.16;118439.88;5075229;28;20021;-75
2023/03/25 02:35:48;;;;;;;13.77;2.70;;;;;;;-143.48;89.16;118439.88;5075076;28;20075;-75
2023/03/25 02:38:31;;;;;;;17.23;2.72;;;;;;;-143.48;88.98;118439.88;5061478;28;20483;-77
2023/03/25 02:41:08;;;;;;;21.73;3.15;;;;;;;-143.48;89.43;118439.88;5075035;28;20028;-76
2023/03/25 02:43:52;;;;;;;13.88;3.65;;;;;;;-143.48;89.44;118439.88;5073545;28;20054;-75
2023/03/25 02:46:18;;;;;;;19.85;3.28;;;;;;;-143.48;89.35;118439.88;5075238;28;20499;-74
2023/03/25 02:48:53;;;;;;;22.30;3.50;;;;;;;-143.48;89.34;118439.88;5073578;28;20454;-75
2023/03/25 02:51:26;;;;;;;19.95;2.95;;;;;;;-143.48;89.22;118439.88;5074767;28;20372;-74
2023/03/25 02:53:54;;;;;;;13.80;2.28;;;;;;;-143.48;88.92;118439.88;5074583;28;20046;-74
2023/03/25 02:56:24;;;;;;;19.38;3.00;;;;;;;-143.48;89.34;118439.88;5073433;28;20079;-74
2023/03/25 02:58:54;;;;;;;18.45;3.10;;;;;;;-143.48;89.35;118439.88;5074649;28;20492;-75
2023/03/25 03:01:21;;;;;;;22.27;3.88;;;;;;;-143.48;88.58;118439.88;5074514;28;20016;-75
2023/03/25 03:03:47;;;;;;;18.85;3.35;;;;;;;-143.48;89.23;118439.88;5073870;28;20020;-75
2023/03/25 03:06:16;;;;;;;15.80;2.58;;;;;;;-143.48;88.98;118439.88;5074515;28;20032;-75
2023/03/25 03:08:48;;;;;;;15.40;2.78;;;;;;;-143.48;88.89;118439.88;5074419;28;20099;-74
2023/03/25 03:11:44;;;;;;;16.63;2.83;;;;;;;-143.48;89.50;118439.88;5074546;28;20034;-76
2023/03/25 03:14:27;;;;;;;22.52;3.42;;;;;;;-143.48;90.22;118439.88;5072989;28;20028;-75
2023/03/25 03:17:07;;;;;;;22.85;3.08;;;;;;;-143.48;90.32;118439.88;5072929;28;20082;-76
2023/03/25 03:19:49;;;;;;;15.13;2.83;;;;;;;-143.48;91.33;118439.88;5072684;28;20020;-76
2023/03/25 03:22:44;;;;;;;22.30;3.13;;;;;;;-143.48;91.17;118439.88;5072871;28;20020;-76
2023/03/25 03:25:29;;;;;;;15.98;2.72;;;;;;;-143.48;91.13;118439.88;5072738;28;20025;-76
2023/03/25 03:28:00;;;;;;;17.48;3.05;;;;;;;-143.48;91.69;118439.88;5072698;28;20024;-76
2023/03/25 03:30:38;;;;;;;17.02;3.15;;;;;;;-143.48;91.62;118439.88;5072606;28;20028;-75
2023/03/25 03:33:15;;;;;;;20.15;3.50;;;;;;;-143.48;91.99;118439.88;5073824;28;20081;-75
2023/03/25 03:35:51;;;;;;;18.85;3.50;;;;;;;-143.48;91.41;118439.88;5073880;28;20043;-76
2023/03/25 03:38:22;;;;;;;15.60;2.55;;;;;;;-143.48;91.50;118439.88;5073861;28;20051;-75
2023/03/25 03:40:52;;;;;;;18.52;3.88;;;;;;;-143.48;91.80;118439.88;5072455;28;20025;-75
2023/03/25 03:43:43;;;;;;;18.67;3.00;;;;;;;-143.48;91.68;118439.88;5072435;28;20036;-76
2023/03/25 03:46:18;;;;;;;12.35;2.88;;;;;;;-143.48;91.44;118439.88;5072414;28;20484;-76
2023/03/25 03:48:54;;;;;;;17.40;2.95;;;;;;;-143.48;91.51;118439.88;5073620;28;20494;-75
2023/03/25 03:51:32;;;;;;;22.85;3.47;;;;;;;-143.48;91.24;118439.88;5072308;28;20097;-74
2023/03/25 03:54:07;;;;;;;17.98;3.10;;;;;;;-143.48;91.23;118439.88;5072048;28;20135;-75
2023/03/25 03:56:38;;;;;;;17.10;3.03;;;;;;;-143.48;90.53;118439.88;5073589;28;20503;-74
2023/03/25 03:59:27;;;;;;;11.77;2.60;;;;;;;-143.48;90.45;118439.88;5072169;28;20020;-74
2023/03/25 04:01:59;;;;;;;25.27;3.80;;;;;;;-143.48;91.48;118439.88;5072195;28;20043;-75
2023/03/25 04:04:28;;;;;;;22.13;4.10;;;;;;;-143.48;92.81;118439.88;5072061;28;20023;-77
2023/03/25 04:06:56;;;;;;;14.20;2.60;;;;;;;-143.48;95.09;118439.88;5073473;28;20073;-77
2023/03/25 04:09:32;;;;;;;25.00;3.28;;;;;;;-143.48;95.21;118439.88;5074139;28;20028;-77
2023/03/25 04:12:17;;;;;;;13.43;2.58;;;;;;;-143.48;96.11;118439.88;5072446;28;20029;-76
2023/03/25 04:14:43;;;;;;;13.93;2.80;;;;;;;-143.48;97.44;118439.88;5072507;28;20024;-77
2023/03/25 04:17:09;;;;;;;14.35;2.97;;;;;;;-143.48;97.28;118439.88;5072218;28;20368;-76
2023/03/25 04:19:35;;;;;;;14.55;2.50;;;;;;;-143.48;97.93;118439.88;5073330;28;20031;-76
2023/03/25 04:22:01;;;;;;;13.00;2.65;;;;;;;-143.48;97.38;118439.88;5073123;28;20024;-76
2023/03/25 04:24:31;;;;;;;15.43;3.15;;;;;;;-143.48;97.26;118439.88;5072270;28;20078;-77
2023/03/25 04:27:02;;;;;;;13.98;2.72;;;;;;;-143.48;96.70;118439.88;5071947;28;20543;-75
2023/03/25 04:29:30;;;;;;;17.00;2.67;;;;;;;-143.48;96.75;118439.88;5073043;28;20021;-76
2023/03/25 04:31:56;;;;;;;14.27;2.60;;;;;;;-143.48;96.73;118439.88;5073067;28;20210;-75
2023/03/25 04:34:22;;;;;;;12.43;2.80;;;;;;;-143.48;96.96;118439.88;5071821;28;20105;-76
2023/03/25 04:36:49;;;;;;;16.80;3.13;;;;;;;-143.48;97.22;118439.88;5071874;28;20460;-76
2023/03/25 04:39:16;;;;;;;14.93;2.33;;;;;;;-143.48;94.37;118439.88;5072964;28;20415;-76
2023/03/25 04:41:42;;;;;;;17.77;2.63;;;;;;;-143.48;95.46;118439.88;5071726;28;20081;-76
2023/03/25 04:44:08;;;;;;;14.63;2.63;;;;;;;-143.48;95.96;118439.88;5072880;28;20404;-78
2023/03/25 04:46:35;;;;;;;15.38;3.03;;;;;;;-143.48;96.37;118439.88;5071596;28;20035;-76
2023/03/25 04:49:04;;;;;;;14.98;2.38;;;;;;;-143.48;96.78;118439.88;5072951;28;20028;-76
2023/03/25 04:51:31;;;;;;;21.75;3.20;;;;;;;-143.48;97.34;118439.88;5072984;28;20024;-76
2023/03/25 04:53:57;;;;;;;17.30;3.00;;;;;;;-143.48;97.30;118439.88;5072940;28;20044;-76
2023/03/25 04:56:23;;;;;;;15.25;2.83;;;;;;;-143.48;97.53;118439.88;5071620;28;20395;-76
2023/03/25 04:58:48;;;;;;;18.90;3.38;;;;;;;-143.48;97.83;118439.88;5071577;28;20024;-76
2023/03/25 05:01:30;;;;;;;19.00;3.25;;;;;;;-143.48;97.60;118439.88;5071537;28;20113;-76
2023/03/25 05:04:03;;;;;;;12.98;2.78;;;;;;;-143.48;97.71;118439.88;5071655;28;20360;-75
2023/03/25 05:06:31;;;;;;;19.40;3.10;;;;;;;-143.48;97.32;118439.88;5071558;28;20028;-75
2023/03/25 05:08:57;;;;;;;27.92;3.63;;;;;;;-143.48;97.54;118439.88;5071549;28;20373;-75
2023/03/25 05:11:22;;;;;;;23.33;4.40;;;;;;;-143.48;97.21;118439.88;5072611;28;20028;-75
2023/03/25 05:13:47;;;;;;;19.67;3.10;;;;;;;-143.48;97.27;118439.88;5071439;28;20028;-75
2023/03/25 05:16:13;;;;;;;22.10;3.80;;;;;;;-143.48;96.45;118439.88;5072669;28;20016;-75
2023/03/25 05:18:38;;;;;;;22.17;2.92;;;;;;;-143.48;96.84;118439.88;5071292;28;20442;-75
2023/03/25 05:21:04;;;;;;;30.15;3.58;;;;;;;-143.48;95.48;118439.88;5071344;28;20059;-75
2023/03/25 05:23:30;;;;;;;26.27;3.55;;;;;;;-143.48;95.29;118439.88;5072634;28;20104;-74
2023/03/25 05:25:55;;;;;;;27.15;3.47;;;;;;;-143.48;93.91;118439.88;5071372;28;20440;-76
2023/03/25 05:28:21;;;;;;;27.83;4.10;;;;;;;-143.48;93.27;118439.88;5075313;28;20067;-74
2023/03/25 05:30:46;;;;;;;28.63;3.85;;;;;;;-143.48;92.66;118439.88;5076197;28;20036;-74
2023/03/25 05:33:15;;;;;;;31.27;4.45;;;;;;;-143.48;92.26;118439.88;5074924;28;20025;-74
2023/03/25 05:35:41;;;;;;;23.20;3.90;;;;;;;-143.48;92.11;118439.88;5075340;28;20024;-74
2023/03/25 05:38:08;;;;;;;28.92;4.03;;;;;;;-143.48;91.42;118439.88;5076115;28;20029;-75
2023/03/25 05:40:34;;;;;;;35.83;4.00;;;;;;;-143.48;91.23;118439.88;5076079;28;20475;-74
2023/03/25 05:43:02;;;;;;;25.60;2.85;;;;;;;-143.48;90.57;118439.88;5076027;28;20021;-75
2023/03/25 05:45:27;;;;;;;27.77;3.60;;;;;;;-143.48;90.41;118439.88;5074771;28;20036;-75
2023/03/25 05:47:53;;;;;;;26.38;4.13;;;;;;;-143.48;88.10;118439.88;5074684;28;20029;-74
2023/03/25 05:50:18;;;;;;;23.45;3.35;;;;;;;-143.48;88.99;118439.88;5075891;28;20466;-75
2023/03/25 05:52:44;;;;;;;22.60;3.10;;;;;;;-143.48;88.12;118439.88;5074524;28;20519;-75
2023/03/25 05:55:14;;;;;;;26.48;3.83;;;;;;;-143.48;87.73;118439.88;5074693;28;20107;-74
2023/03/25 05:57:40;;;;;;;20.40;3.20;;;;;;;-143.48;87.80;118439.88;5074612;28;20534;-74
2023/03/25 06:00:07;;;;;;;35.83;3.55;;;;;;;-143.48;87.09;118439.88;5074476;28;20017;-75
2023/03/25 06:02:34;;;;;;;26.88;2.95;;;;;;;-143.48;87.10;118439.88;5075832;28;20089;-74
2023/03/25 06:04:59;;;;;;;23.80;3.25;;;;;;;-143.48;86.21;118439.88;5075902;28;20128;-75
2023/03/25 06:07:24;;;;;;;27.75;3.72;;;;;;;-143.48;86.63;118439.88;5074726;28;20110;-74
2023/03/25 06:09:52;;;;;;;25.67;3.38;;;;;;;-143.48;86.32;118439.88;5074299;28;20291;-74
2023/03/25 06:12:20;;;;;;;22.02;2.85;;;;;;;-143.48;86.56;118439.88;5074300;28;20492;-75
2023/03/25 06:14:46;;;;;;;32.63;3.47;;;;;;;-143.48;86.35;118439.88;5074435;28;20028;-75
2023/03/25 06:17:17;;;;;;;22.38;3.10;;;;;;;-143.48;86.28;118439.88;5075793;28;20037;-75
2023/03/25 06:19:43;;;;;;;24.80;3.63;;;;;;;-143.48;86.35;118439.88;5075624;28;20016;-75
2023/03/25 06:22:10;;;;;;;30.85;3.72;;;;;;;-143.48;87.42;118439.88;5075161;28;20016;-76
2023/03/25 06:24:40;;;;;;;24.15;3.33;;;;;;;-143.48;89.75;118439.88;5074728;28;20488;-76
2023/03/25 06:27:11;;;;;;;21.65;3.17;;;;;;;-143.48;90.50;118439.88;5076748;28;20025;-76
2023/03/25 06:29:37;;;;;;;25.67;3.42;;;;;;;-143.48;91.15;118439.88;5079066;28;20479;-76
2023/03/25 06:32:04;;;;;;;32.30;4.53;;;;;;;-143.48;92.59;118439.88;5077148;28;20154;-77
2023/03/25 06:34:31;;;;;;;21.95;2.80;;;;;;;-143.48;92.83;118439.88;5078319;28;20048;-76
2023/03/25 06:36:57;;;;;;;21.92;3.47;;;;;;;-143.48;93.98;118439.88;5077430;28;20099;-76
2023/03/25 06:39:23;;;;;;;26.95;3.28;;;;;;;-143.48;94.79;118439.88;5074522;28;20101;-76
2023/03/25 06:41:49;;;;;;;26.27;3.75;;;;;;;-143.48;95.46;118439.88;5079138;28;20028;-76
2023/03/25 06:44:15;;;;;;;22.48;3.83;;;;;;;-143.48;95.66;118439.88;5076664;28;20020;-76
2023/03/25 06:46:41;;;;;;;25.38;3.88;;;;;;;-143.48;95.96;118439.88;5073761;28;20468;-76
2023/03/25 06:49:06;;;;;;;30.88;3.55;;;;;;;-143.48;96.01;118439.88;5074059;28;20023;-76
2023/03/25 06:51:32;;;;;;;25.80;3.10;;;;;;;-143.48;95.41;118439.88;5075102;28;20418;-76
2023/03/25 06:53:57;;;;;;;25.15;3.42;;;;;;;-143.48;95.40;118439.88;5076801;28;20055;-76
2023/03/25 06:56:22;;;;;;;26.33;3.35;;;;;;;-143.48;95.12;118439.88;5074924;28;20032;-76
2023/03/25 06:58:48;;;;;;;24.23;3.35;;;;;;;-143.48;95.89;118439.88;5075165;28;20055;-76
2023/03/25 07:01:13;;;;;;;28.15;3.38;;;;;;;-143.48;95.96;118439.88;5073672;28;20432;-76
2023/03/25 07:03:38;;;;;;;26.38;3.67;;;;;;;-143.48;93.85;118439.88;5073831;28;20024;-76
2023/03/25 07:06:05;;;;;;;27.67;3.95;;;;;;;-143.48;93.50;118439.88;5075656;28;20094;-75
2023/03/25 07:08:30;;;;;;;35.22;3.78;;;;;;;-143.48;92.22;118439.88;5075621;28;20027;-76
2023/03/25 07:11:17;;;;;;;26.05;3.85;;;;;;;-143.48;92.03;118439.88;5075251;28;20397;-76
2023/03/25 07:13:42;;;;;;;17.92;2.78;;;;;;;-143.48;91.07;118439.88;5073446;28;20052;-76
2023/03/25 07:16:08;;;;;;;34.20;3.50;;;;;;;-143.48;90.87;118439.88;5074479;28;20383;-75
2023/03/25 07:18:34;;;;;;;23.13;3.10;;;;;;;-143.48;90.30;118439.88;5073068;28;20087;-74
2023/03/25 07:21:00;;;;;;;26.73;3.33;;;;;;;-143.48;89.45;118439.88;5074572;28;20039;-74
2023/03/25 07:23:25;;;;;;;31.88;3.50;;;;;;;-143.48;90.29;118439.88;5072355;28;20040;-75
2023/03/25 07:25:51;;;;;;;26.70;4.18;;;;;;;-143.48;88.72;118439.88;5074255;28;20024;-75
2023/03/25 07:28:17;;;;;;;24.00;3.05;;;;;;;-143.48;87.65;118439.88;5074013;28;20051;-75
2023/03/25 07:30:43;;;;;;;27.77;4.63;;;;;;;-143.48;88.00;118439.88;5072819;28;20476;-74
2023/03/25 07:33:08;;;;;;;19.20;2.92;;;;;;;-143.48;86.26;118439.88;5074189;28;20021;-74
2023/03/25 07:35:33;;;;;;;25.45;4.47;;;;;;;-143.48;86.41;118439.88;5073927;28;20100;-74
2023/03/25 07:37:59;;;;;;;28.48;3.30;;;;;;;-143.48;85.98;118439.88;5073892;28;20443;-76
2023/03/25 07:40:24;;;;;;;19.73;2.92;;;;;;;-143.48;84.54;118439.88;5073233;28;20012;-76
2023/03/25 07:42:50;;;;;;;20.88;3.35;;;;;;;-143.48;84.94;118439.88;5074003;28;20076;-76
2023/03/25 07:45:15;;;;;;;29.90;4.00;;;;;;;-143.48;84.89;118439.88;5073911;28;20029;-75
2023/03/25 07:47:41;;;;;;;22.35;3.25;;;;;;;-143.48;84.28;118439.88;5072471;28;20056;-77
2023/03/25 07:50:07;;;;;;;22.92;3.65;;;;;;;-143.48;83.77;118439.88;5071585;28;20408;-74
2023/03/25 07:52:32;;;;;;;33.67;4.10;;;;;;;-143.48;84.53;118439.88;5073397;28;20070;-74
2023/03/25 07:54:59;;;;;;;21.90;3.15;;;;;;;-143.48;83.82;118439.88;5073795;28;20016;-74
2023/03/25 07:57:25;;;;;;;24.58;3.35;;;;;;;-143.48;83.27;118439.88;5073517;28;20024;-74
2023/03/25 07:59:50;;;;;;;22.00;3.45;;;;;;;-143.48;84.30;118439.88;5072172;28;20025;-74
2023/03/25 08:02:17;;;;;;;26.40;3.55;;;;;;;-143.48;83.69;118439.88;5073445;28;20017;-74
2023/03/25 08:04:42;;;;;;;14.10;2.55;;;;;;;-143.48;83.71;118439.88;5072088;28;20029;-74
2023/03/25 08:07:08;;;;;;;23.63;3.72;;;;;;;-143.48;82.44;118439.88;5072266;28;20090;-75
2023/03/25 08:09:34;;;;;;;15.45;2.85;;;;;;;-143.48;81.80;118439.88;5073277;28;20363;-75
2023/03/25 08:11:59;;;;;;;24.60;3.88;;;;;;;-143.48;83.02;118439.88;5073264;28;20031;-75
2023/03/25 08:14:25;;;;;;;17.10;2.67;;;;;;;-143.48;83.74;118439.88;5073377;28;20031;-75
2023/03/25 08:16:51;;;;;;;19.20;3.00;;;;;;;-143.48;83.06;118439.88;5071966;28;20024;-74
2023/03/25 08:19:16;;;;;;;22.45;3.25;;;;;;;-143.48;86.04;118439.88;5073127;28;20517;-74
2023/03/25 08:21:42;;;;;;;27.08;3.00;;;;;;;-143.48;88.59;118439.88;5071264;28;20109;-76
2023/03/25 08:24:07;;;;;;;20.58;3.15;;;;;;;-143.48;88.64;118439.88;5072706;28;20030;-76
2023/03/25 08:26:34;;;;;;;26.92;3.35;;;;;;;-143.48;87.46;118439.88;5073049;28;20094;-76
2023/03/25 08:29:01;;;;;;;24.15;2.85;;;;;;;-143.48;87.36;118439.88;5073119;28;20020;-75
2023/03/25 08:31:29;;;;;;;25.98;4.05;;;;;;;-143.48;87.05;118439.88;5071841;28;20116;-75
2023/03/25 08:33:56;;;;;;;21.38;2.83;;;;;;;-143.48;85.68;118439.88;5071716;28;20082;-75
2023/03/25 08:36:22;;;;;;;20.77;2.95;;;;;;;-143.48;85.63;118439.88;5071922;28;20472;-74
2023/03/25 08:38:49;;;;;;;28.88;3.30;;;;;;;-143.48;85.83;118439.88;5071651;28;20017;-74
2023/03/25 08:41:14;;;;;;;20.42;2.92;;;;;;;-143.48;85.19;118439.88;5072988;28;20016;-75
2023/03/25 08:43:40;;;;;;;26.25;3.30;;;;;;;-143.48;86.06;118439.88;5071679;28;20104;-76
2023/03/25 08:46:06;;;;;;;23.33;3.35;;;;;;;-143.48;86.03;118439.88;5071685;28;20056;-76
2023/03/25 08:48:31;;;;;;;20.63;2.88;;;;;;;-143.48;85.54;118439.88;5071617;28;20029;-77
2023/03/25 08:50:56;;;;;;;20.05;2.80;;;;;;;-143.48;85.17;118439.88;5071613;28;20035;-75
2023/03/25 08:53:22;;;;;;;22.42;3.78;;;;;;;-143.48;82.80;118439.88;5070263;28;20484;-76
2023/03/25 08:55:52;;;;;;;21.38;3.30;;;;;;;-143.48;81.19;118439.88;5071636;28;20079;-74
2023/03/25 08:58:18;;;;;;;21.88;3.22;;;;;;;-143.48;72.04;118439.88;5072925;28;20424;-74
2023/03/25 09:00:43;;;;;;;25.55;3.55;;;;;;;-143.48;78.20;118439.88;5072786;28;20108;-74
2023/03/25 09:03:09;;;;;;;27.38;3.80;;;;;;;-143.48;79.60;118439.88;5075468;28;20468;-72
2023/03/25 09:05:38;;;;;;;19.85;3.42;;;;;;;-143.48;79.30;118439.88;5075549;28;20430;-75
2023/03/25 09:08:04;;;;;;;16.50;2.85;;;;;;;-143.48;77.34;118439.88;5075432;28;20025;-74
2023/03/25 09:10:30;;;;;;;18.88;4.03;;;;;;;-143.48;78.06;118439.88;5075371;28;20491;-75
2023/03/25 09:12:56;;;;;;;25.40;2.83;;;;;;;-143.48;78.26;118439.88;5075363;28;20029;-75
2023/03/25 09:15:21;;;;;;;25.73;3.30;;;;;;;-143.48;78.07;118439.88;5075242;28;20028;-76
2023/03/25 09:17:47;;;;;;;23.50;3.92;;;;;;;-143.48;77.66;118439.88;5075111;28;20024;-75
2023/03/25 09:20:13;;;;;;;19.35;3.08;;;;;;;-143.48;78.12;118439.88;5075132;28;20332;-74
2023/03/25 09:22:39;;;;;;;23.92;4.22;;;;;;;-143.48;77.18;118439.88;5075351;28;20024;-76
2023/03/25 09:25:06;;;;;;;24.50;3.88;;;;;;;-143.48;77.58;118439.88;5075766;28;20020;-75
2023/03/25 09:27:32;;;;;;;25.13;3.85;;;;;;;-143.48;78.27;118439.88;5075436;28;20030;-76
2023/03/25 09:29:57;;;;;;;22.92;3.42;;;;;;;-143.48;75.27;118439.88;5075436;28;20112;-76
2023/03/25 09:32:23;;;;;;;26.23;3.13;;;;;;;-143.48;76.10;118439.88;5075297;28;20451;-75
2023/03/25 09:34:48;;;;;;;25.13;3.30;;;;;;;-143.48;77.34;118439.88;5076556;28;20033;-74
2023/03/25 09:37:14;;;;;;;26.85;3.97;;;;;;;-143.48;76.78;118439.88;5076813;28;20013;-74
2023/03/25 09:39:39;;;;;;;22.77;3.10;;;;;;;-143.48;75.87;118439.88;5076380;28;20024;-74
2023/03/25 09:42:36;;;;;;;25.27;3.30;;;;;;;-143.48;76.56;118439.88;5076418;28;20024;-74
2023/03/25 09:45:20;;;;;;;25.98;3.20;;;;;;;-143.48;75.40;118439.88;5076533;28;20036;-76
2023/03/25 09:47:57;;;;;;;18.55;3.40;;;;;;;-143.48;77.22;118439.88;5075520;28;20467;-76
2023/03/25 09:50:24;;;;;;;20.13;3.47;;;;;;;-143.48;76.55;118439.88;5076618;28;20414;-76
2023/03/25 09:52:57;;;;;;;20.83;3.30;;;;;;;-143.48;75.88;118439.88;5074920;28;20037;-75
2023/03/25 09:55:27;;;;;;;19.13;3.28;;;;;;;-143.48;75.51;118439.88;5076163;28;20391;-75
2023/03/25 09:57:59;;;;;;;26.15;4.57;;;;;;;-143.48;74.71;118439.88;5076186;28;20150;-76
2023/03/25 10:00:25;;;;;;;28.23;3.58;;;;;;;-143.48;76.08;118439.88;5074155;28;20407;-74
2023/03/25 10:03:18;;;;;;;27.05;3.38;;;;;;;-143.48;74.30;118439.88;5074025;28;20045;-73
2023/03/25 10:05:44;;;;;;;;;;;;;;;-143.48;74.14;118439.88;5071303;28;20555;-77
2023/03/25 10:08:49;;;;;;;23.17;3.30;;;;;;;-143.48;74.16;118439.88;5075788;28;20001;-70
2023/03/25 10:11:29;;;;;;;27.05;3.67;;;;;;;-143.48;75.16;118439.88;5075789;28;20090;-74
2023/03/25 10:14:09;;;;;;;30.90;3.50;;;;;;;-143.48;72.96;118439.88;5075450;28;20029;-74
2023/03/25 10:16:43;;;;;;;23.60;3.47;;;;;;;-143.48;73.26;118439.88;5075985;28;20020;-72
2023/03/25 10:19:46;;;;;;;24.08;3.78;;;;;;;-143.48;70.83;118439.88;5075776;28;20040;-74
2023/03/25 10:22:24;;;;;;;22.48;3.38;;;;;;;-143.48;71.74;118439.88;5075834;28;20028;-75
2023/03/25 10:25:05;;;;;;;24.17;3.67;;;;;;;-143.48;72.25;118439.88;5075816;28;20127;-74
2023/03/25 10:27:37;;;;;;;29.33;4.72;;;;;;;-143.48;70.44;118439.88;5075730;28;20146;-75
2023/03/25 10:30:08;;;;;;;23.13;3.90;;;;;;;-143.48;70.35;118439.88;5075615;28;20435;-72
2023/03/25 10:32:39;;;;;;;29.25;4.05;;;;;;;-143.48;71.07;118439.88;5075560;28;20029;-74
2023/03/25 10:35:10;;;;;;;18.88;3.28;;;;;;;-143.48;71.55;118439.88;5075252;28;20024;-73
2023/03/25 10:37:40;;;;;;;23.40;3.60;;;;;;;-143.48;69.62;118439.88;5074230;28;20027;-74
2023/03/25 10:40:38;;;;;;;19.90;3.90;;;;;;;-143.48;70.01;118439.88;5074309;28;20379;-72
2023/03/25 10:43:22;;;;;;;20.02;3.63;;;;;;;-143.48;69.09;118439.88;5073801;28;20113;-72
2023/03/25 10:45:50;;;;;;;22.90;3.50;;;;;;;-143.48;70.04;118439.88;5075301;28;20025;-73
2023/03/25 10:48:30;;;;;;;20.50;3.45;;;;;;;-143.48;71.01;118439.88;5073678;28;20016;-75
2023/03/25 10:51:04;;;;;;;23.30;3.53;;;;;;;-143.48;67.31;118439.88;5075356;28;20024;-71
2023/03/25 10:53:30;;;;;;;26.00;3.70;;;;;;;-143.48;69.15;118439.88;5075075;28;20109;-72
2023/03/25 10:56:03;;;;;;;20.95;3.15;;;;;;;-143.48;67.15;118439.88;5074013;28;20448;-71
2023/03/25 10:58:30;;;;;;;25.05;3.22;;;;;;;-143.48;64.94;118439.88;5074947;28;20032;-69
2023/03/25 11:00:55;;;;;;;23.55;3.65;;;;;;;-143.48;63.76;118439.88;5074667;28;20031;-71
2023/03/25 11:03:29;;;;;;;25.10;3.33;;;;;;;-143.48;65.73;118439.88;5073543;28;20460;-72
2023/03/25 11:05:55;;;;;;;20.08;2.92;;;;;;;-143.48;65.50;118439.88;5075324;28;20103;-71
2023/03/25 11:08:22;;;;;;;20.05;3.45;;;;;;;-143.48;68.89;118439.88;5073076;28;20028;-72
2023/03/25 11:10:56;;;;;;;20.85;3.28;;;;;;;-143.48;68.14;118439.88;5073425;28;20063;-70
2023/03/25 11:13:29;;;;;;;20.60;3.20;;;;;;;-143.48;67.76;118439.88;5073155;28;20059;-70